createdAt,value
2017-04-08T00:00:02.772Z,10.0
2017-04-08T00:05:03.330Z,9.8
2017-04-08T00:10:03.093Z,9.6
2017-04-08T00:15:02.866Z,9.5
2017-04-08T00:20:02.701Z,9.6
2017-04-08T00:25:02.498Z,9.5
2017-04-08T00:30:03.277Z,9.5
2017-04-08T00:35:03.103Z,9.5
2017-04-08T00:40:02.918Z,9.5
2017-04-08T00:45:02.763Z,9.3
2017-04-08T00:50:02.453Z,9.3
2017-04-08T00:55:03.075Z,9.3
2017-04-08T01:00:02.910Z,9.3
2017-04-08T01:05:02.632Z,9.3
2017-04-08T01:10:03.352Z,9.3
2017-04-08T01:15:03.098Z,9.3
2017-04-08T01:20:02.739Z,9.3
2017-04-08T01:25:02.514Z,9.3
2017-04-08T01:30:03.257Z,9.1
2017-04-08T01:35:03.042Z,9.1
2017-04-08T01:40:02.691Z,9.1
2017-04-08T01:45:02.507Z,9.1
2017-04-08T01:50:03.117Z,9.1
2017-04-08T01:55:02.749Z,9.1
2017-04-08T02:00:02.365Z,9.1
2017-04-08T02:05:03.104Z,9.1
2017-04-08T02:10:02.759Z,9.1
2017-04-08T02:15:02.697Z,9.0
2017-04-08T02:20:03.353Z,9.0
2017-04-08T02:25:02.981Z,9.0
2017-04-08T02:30:03.661Z,9.1
2017-04-08T02:35:02.491Z,9.1
2017-04-08T02:40:03.316Z,9.0
2017-04-08T02:45:02.965Z,9.0
2017-04-08T02:50:02.605Z,9.0
2017-04-08T02:55:03.292Z,8.8
2017-04-08T03:00:02.937Z,9.1
2017-04-08T03:05:02.689Z,9.0
2017-04-08T03:10:02.583Z,9.0
2017-04-08T03:15:03.199Z,9.0
2017-04-08T03:20:03.018Z,8.8
2017-04-08T03:25:02.717Z,9.0
2017-04-08T03:30:02.573Z,8.8
2017-04-08T03:35:03.294Z,8.8
2017-04-08T03:40:03.139Z,8.8
2017-04-08T03:45:02.818Z,8.8
2017-04-08T03:50:02.426Z,8.8
2017-04-08T03:55:03.027Z,8.8
2017-04-08T04:00:02.786Z,8.8
2017-04-08T04:05:02.439Z,8.8
2017-04-08T04:10:03.182Z,8.8
2017-04-08T04:15:02.765Z,8.8
2017-04-08T04:20:03.463Z,8.8
2017-04-08T04:25:03.284Z,9.0
2017-04-08T04:30:03.001Z,9.0
2017-04-08T04:35:02.808Z,9.1
2017-04-08T04:40:02.478Z,9.1
2017-04-08T04:45:03.195Z,9.1
2017-04-08T04:50:02.818Z,8.8
2017-04-08T04:55:02.488Z,9.0
2017-04-08T05:00:03.358Z,9.0
2017-04-08T05:05:03.133Z,9.1
2017-04-08T05:10:02.801Z,9.1
2017-04-08T05:15:02.415Z,9.1
2017-04-08T05:20:03.065Z,9.1
2017-04-08T05:25:02.957Z,9.1
2017-04-08T05:30:02.602Z,9.3
2017-04-08T05:35:03.378Z,9.3
2017-04-08T05:40:03.169Z,9.1
2017-04-08T05:45:02.901Z,9.5
2017-04-08T05:50:02.493Z,9.5
2017-04-08T05:55:03.083Z,9.3
2017-04-08T06:00:02.936Z,9.6
2017-04-08T06:05:02.566Z,9.8
2017-04-08T06:10:03.364Z,10.0
2017-04-08T06:15:03.049Z,9.8
2017-04-08T06:20:02.790Z,10.0
2017-04-08T06:25:02.565Z,10.1
2017-04-08T06:30:03.201Z,10.1
2017-04-08T06:35:02.806Z,10.1
2017-04-08T06:40:02.465Z,10.3
2017-04-08T06:45:03.198Z,10.3
2017-04-08T06:50:02.909Z,10.5
2017-04-08T06:55:02.555Z,10.3
2017-04-08T07:00:03.172Z,10.5
2017-04-08T07:05:02.886Z,10.5
2017-04-08T07:10:02.741Z,10.6
2017-04-08T07:15:02.384Z,10.6
2017-04-08T07:20:03.229Z,10.8
2017-04-08T07:25:02.866Z,10.6
2017-04-08T07:30:02.676Z,11.0
2017-04-08T07:35:02.423Z,11.3
2017-04-08T07:40:03.235Z,11.0
2017-04-08T07:45:02.918Z,11.1
2017-04-08T07:50:02.781Z,11.1
2017-04-08T07:55:02.497Z,11.8
2017-04-08T08:00:03.303Z,11.6
2017-04-08T08:05:03.067Z,11.8
2017-04-08T08:10:02.738Z,11.6
2017-04-08T08:15:03.361Z,11.6
2017-04-08T08:20:03.166Z,11.6
2017-04-08T08:25:02.927Z,12.5
2017-04-08T08:30:02.642Z,12.1
2017-04-08T08:35:03.342Z,12.6
2017-04-08T08:40:03.110Z,12.6
2017-04-08T08:45:02.737Z,12.3
2017-04-08T08:50:03.393Z,12.3
2017-04-08T08:55:03.041Z,12.8
2017-04-08T09:00:02.669Z,12.1
2017-04-08T09:05:03.350Z,12.5
2017-04-08T09:10:03.142Z,13.1
2017-04-08T09:15:02.926Z,12.8
2017-04-08T09:20:02.739Z,13.3
2017-04-08T09:25:02.814Z,12.5
2017-04-08T09:30:03.278Z,13.3
2017-04-08T09:35:02.682Z,13.1
2017-04-08T09:40:03.328Z,13.1
2017-04-08T09:45:03.143Z,12.8
2017-04-08T09:50:03.369Z,13.1
2017-04-08T09:55:03.338Z,12.8
2017-04-08T10:00:02.641Z,13.6
2017-04-08T10:05:03.505Z,13.1
2017-04-08T10:10:02.569Z,13.8
2017-04-08T10:15:03.362Z,13.8
2017-04-08T10:20:03.176Z,14.0
2017-04-08T10:25:02.413Z,14.5
2017-04-08T10:30:03.229Z,15.1
2017-04-08T10:35:03.279Z,16.2
2017-04-08T10:40:02.590Z,15.8
2017-04-08T10:45:02.779Z,14.1
2017-04-08T10:50:02.472Z,14.3
2017-04-08T10:55:02.878Z,14.3
2017-04-08T11:00:02.683Z,14.0
2017-04-08T11:05:02.862Z,13.5
2017-04-08T11:10:02.677Z,13.1
2017-04-08T11:15:03.330Z,13.1
2017-04-08T11:20:02.955Z,12.5
2017-04-08T11:25:03.088Z,13.3
2017-04-08T11:30:03.032Z,13.3
2017-04-08T11:35:02.423Z,13.6
2017-04-08T11:40:03.274Z,14.0
2017-04-08T11:45:02.503Z,13.8
2017-04-08T11:50:02.867Z,14.3
2017-04-08T11:55:03.223Z,15.1
2017-04-08T12:00:02.970Z,15.0
2017-04-08T12:05:03.252Z,14.3
2017-04-08T12:10:02.633Z,15.8
2017-04-08T12:15:03.347Z,15.1
2017-04-08T12:20:03.131Z,15.1
2017-04-08T12:25:02.535Z,14.8
2017-04-08T12:30:02.733Z,14.5
2017-04-08T12:35:02.896Z,15.1
2017-04-08T12:40:03.342Z,15.1
2017-04-08T12:45:02.540Z,15.3
2017-04-08T12:50:03.308Z,15.8
2017-04-08T12:55:02.541Z,15.1
2017-04-08T13:00:02.628Z,15.1
2017-04-08T13:05:02.868Z,14.5
2017-04-08T13:10:02.943Z,13.6
2017-04-08T13:15:03.328Z,13.6
2017-04-08T13:20:03.026Z,15.1
2017-04-08T13:25:03.321Z,15.6
2017-04-08T13:30:02.464Z,16.6
2017-04-08T13:35:03.099Z,16.7
2017-04-08T13:40:02.587Z,15.1
2017-04-08T13:45:02.583Z,14.5
2017-04-08T13:50:03.051Z,14.5
2017-04-08T13:55:03.181Z,16.6
2017-04-08T14:00:02.904Z,18.2
2017-04-08T14:05:02.504Z,16.7
2017-04-08T14:10:03.257Z,16.0
2017-04-08T14:15:02.925Z,15.8
2017-04-08T14:20:03.378Z,15.6
2017-04-08T14:25:02.834Z,17.3
2017-04-08T14:30:02.637Z,15.8
2017-04-08T14:35:02.831Z,15.8
2017-04-08T14:40:02.453Z,15.1
2017-04-08T14:45:03.288Z,14.8
2017-04-08T14:50:02.566Z,15.5
2017-04-08T14:55:03.005Z,15.6
2017-04-08T15:00:02.572Z,17.0
2017-04-08T15:05:02.672Z,16.7
2017-04-08T15:10:03.198Z,17.7
2017-04-08T15:15:03.146Z,18.2
2017-04-08T15:20:03.366Z,18.2
2017-04-08T15:25:03.111Z,20.0
2017-04-08T15:30:02.528Z,19.5
2017-04-08T15:35:02.582Z,18.5
2017-04-08T15:40:02.687Z,17.7
2017-04-08T15:45:02.881Z,17.1
2017-04-08T15:50:03.004Z,16.3
2017-04-08T15:55:03.101Z,16.2
2017-04-08T16:00:03.247Z,17.0
2017-04-08T16:05:03.099Z,17.3
2017-04-08T16:10:03.198Z,16.2
2017-04-08T16:15:02.878Z,17.0
2017-04-08T16:20:02.956Z,17.1
2017-04-08T16:25:02.804Z,16.2
2017-04-08T16:30:02.792Z,17.2
2017-04-08T16:35:02.641Z,17.1
2017-04-08T16:40:02.535Z,16.6
2017-04-08T16:45:02.546Z,16.7
2017-04-08T16:50:02.601Z,16.6
2017-04-08T16:55:03.260Z,16.7
2017-04-08T17:00:02.930Z,16.6
2017-04-08T17:05:02.814Z,16.3
2017-04-08T17:10:02.864Z,16.2
2017-04-08T17:15:02.583Z,16.2
2017-04-08T17:20:02.572Z,15.8
2017-04-08T17:25:03.164Z,15.5
2017-04-08T17:30:02.983Z,15.1
2017-04-08T17:35:02.610Z,15.1
2017-04-08T17:40:03.378Z,15.0
2017-04-08T17:45:03.163Z,13.6
2017-04-08T17:50:02.896Z,13.1
2017-04-08T17:55:02.661Z,12.8
2017-04-08T18:00:02.450Z,12.3
2017-04-08T18:05:03.065Z,12.1
2017-04-08T18:10:02.700Z,12.0
2017-04-08T18:15:02.417Z,11.6
2017-04-08T18:20:03.093Z,11.3
2017-04-08T18:25:02.787Z,11.3
2017-04-08T18:30:02.558Z,11.0
2017-04-08T18:35:03.327Z,10.8
2017-04-08T18:40:02.979Z,10.8
2017-04-08T18:45:02.614Z,10.6
2017-04-08T18:50:03.249Z,10.5
2017-04-08T18:55:02.955Z,10.5
2017-04-08T19:00:02.737Z,10.3
2017-04-08T19:05:02.708Z,10.1
2017-04-08T19:10:02.463Z,10.0
2017-04-08T19:15:03.236Z,9.8
2017-04-08T19:20:03.123Z,9.6
2017-04-08T19:25:02.853Z,9.6
2017-04-08T19:30:02.705Z,9.5
2017-04-08T19:35:02.549Z,9.3
2017-04-08T19:40:03.353Z,9.5
2017-04-08T19:45:03.017Z,9.1
2017-04-08T19:50:02.879Z,9.3
2017-04-08T19:55:02.537Z,9.1
2017-04-08T20:00:03.357Z,9.0
2017-04-08T20:05:03.037Z,8.8
2017-04-08T20:10:02.711Z,9.0
2017-04-08T20:15:02.606Z,8.8
2017-04-08T20:20:02.671Z,8.6
2017-04-08T20:25:02.458Z,8.5
2017-04-08T20:30:03.133Z,8.5
2017-04-08T20:35:02.807Z,8.3
2017-04-08T20:40:02.604Z,8.0
2017-04-08T20:45:03.261Z,8.1
2017-04-08T20:50:02.899Z,8.3
2017-04-08T20:55:02.540Z,8.0
2017-04-08T21:00:03.118Z,7.9
2017-04-08T21:05:02.769Z,7.6
2017-04-08T21:10:02.618Z,7.6
2017-04-08T21:15:03.390Z,7.1
2017-04-08T21:20:03.197Z,7.1
2017-04-08T21:25:03.199Z,7.0
2017-04-08T21:30:03.241Z,7.0
2017-04-08T21:35:02.878Z,7.1
2017-04-08T21:40:02.628Z,6.9
2017-04-08T21:45:03.441Z,6.9
2017-04-08T21:50:03.251Z,6.6
2017-04-08T21:55:02.850Z,6.6
2017-04-08T22:00:02.473Z,6.6
2017-04-08T22:05:03.231Z,6.6
2017-04-08T22:10:03.169Z,6.5
2017-04-08T22:15:02.906Z,6.5
2017-04-08T22:20:02.700Z,6.4
2017-04-08T22:25:02.500Z,6.4
2017-04-08T22:30:03.082Z,6.1
2017-04-08T22:35:02.875Z,6.0
2017-04-08T22:40:02.515Z,6.0
2017-04-08T22:45:03.288Z,5.9
2017-04-08T22:50:02.894Z,5.9
2017-04-08T22:55:02.561Z,5.9
2017-04-08T23:00:03.344Z,5.8
2017-04-08T23:05:02.613Z,5.8
2017-04-08T23:10:03.312Z,5.5
2017-04-08T23:15:03.100Z,5.5
2017-04-08T23:20:02.786Z,5.5
2017-04-08T23:25:03.450Z,5.4
2017-04-08T23:30:03.460Z,5.4
2017-04-08T23:35:03.062Z,5.4
2017-04-08T23:40:02.775Z,5.3
2017-04-08T23:45:02.632Z,5.4
2017-04-08T23:50:03.324Z,5.3
2017-04-08T23:55:05.913Z,5.0
